createdAt,value
2022-10-23T00:02:10.769Z,99754.56
2022-10-23T00:04:38.468Z,99752.91
2022-10-23T00:07:06.138Z,99754.78
2022-10-23T00:09:35.110Z,99749.63
2022-10-23T00:12:02.806Z,99745.25
2022-10-23T00:14:30.534Z,99742.69
2022-10-23T00:16:58.248Z,99743.69
2022-10-23T00:19:25.845Z,99747.31
2022-10-23T00:21:53.580Z,99740.38
2022-10-23T00:24:21.194Z,99752.84
2022-10-23T00:26:51.640Z,99756.44
2022-10-23T00:29:19.215Z,99757.34
2022-10-23T00:31:46.865Z,99759.19
2022-10-23T00:34:14.521Z,99758.38
2022-10-23T00:36:42.280Z,99757.56
2022-10-23T00:39:10.012Z,99771.69
2022-10-23T00:41:37.646Z,99755.97
2022-10-23T00:44:08.774Z,99754.34
2022-10-23T00:46:36.623Z,99756.16
2022-10-23T00:49:04.939Z,99707.81
2022-10-23T00:51:34.949Z,99756.34
2022-10-23T00:54:23.006Z,99755.50
2022-10-23T00:56:50.115Z,99755.63
2022-10-23T00:59:19.131Z,99755.78
2022-10-23T01:01:47.042Z,99749.69
2022-10-23T01:04:14.809Z,99756.63
2022-10-23T01:06:44.643Z,99750.50
2022-10-23T01:09:15.827Z,99741.78
2022-10-23T01:11:44.636Z,99747.94
2022-10-23T01:14:17.436Z,99740.22
2022-10-23T01:16:48.713Z,99747.16
2022-10-23T01:19:21.236Z,99738.59
2022-10-23T01:21:54.943Z,99709.38
2022-10-23T01:24:38.078Z,99750.75
2022-10-23T01:27:21.399Z,99740.31
2022-10-23T01:29:52.643Z,99733.56
2022-10-23T01:32:23.073Z,99747.56
2022-10-23T01:34:51.845Z,99751.09
2022-10-23T01:37:21.613Z,99749.38
2022-10-23T01:39:50.903Z,99741.50
2022-10-23T01:42:21.199Z,99675.84
2022-10-23T01:44:50.703Z,99728.63
2022-10-23T01:47:19.629Z,99725.88
2022-10-23T01:49:47.245Z,99722.34
2022-10-23T01:52:15.243Z,99718.91
2022-10-23T01:54:44.116Z,99711.88
2022-10-23T01:57:12.859Z,99711.00
2022-10-23T01:59:43.507Z,99711.00
2022-10-23T02:02:11.328Z,99698.69
2022-10-23T02:04:40.931Z,99696.06
2022-10-23T02:07:08.795Z,99693.53
2022-10-23T02:09:36.448Z,99693.47
2022-10-23T02:12:07.094Z,99676.38
2022-10-23T02:14:44.118Z,99689.94
2022-10-23T02:17:16.494Z,99678.47
2022-10-23T02:19:47.596Z,99669.75
2022-10-23T02:22:17.851Z,99673.31
2022-10-23T02:24:48.182Z,99674.19
2022-10-23T02:27:17.751Z,99678.56
2022-10-23T02:29:47.551Z,99672.47
2022-10-23T02:32:15.491Z,99672.50
2022-10-23T02:34:43.146Z,99670.66
2022-10-23T02:37:10.843Z,99667.13
2022-10-23T02:39:38.997Z,99664.44
2022-10-23T02:42:09.460Z,99653.91
2022-10-23T02:44:43.540Z,99654.81
2022-10-23T02:47:22.884Z,99646.03
2022-10-23T02:49:53.440Z,99638.13
2022-10-23T02:52:22.819Z,99626.72
2022-10-23T02:55:00.488Z,99636.41
2022-10-23T02:57:30.427Z,99635.56
2022-10-23T03:00:02.306Z,99624.25
2022-10-23T03:02:33.139Z,99634.63
2022-10-23T03:05:00.839Z,99626.75
2022-10-23T03:07:28.481Z,99593.13
2022-10-23T03:09:56.142Z,99632.09
2022-10-23T03:12:23.728Z,99626.81
2022-10-23T03:14:51.445Z,99630.31
2022-10-23T03:17:19.046Z,99625.84
2022-10-23T03:19:48.122Z,99611.81
2022-10-23T03:22:15.960Z,99619.72
2022-10-23T03:24:43.844Z,99607.38
2022-10-23T03:27:12.060Z,99617.91
2022-10-23T03:29:39.963Z,99608.22
2022-10-23T03:32:07.587Z,99601.03
2022-10-23T03:34:36.308Z,99600.13
2022-10-23T03:37:05.335Z,99594.84
2022-10-23T03:39:32.970Z,99586.81
2022-10-23T03:42:00.864Z,99575.34
2022-10-23T03:44:28.480Z,99570.88
2022-10-23T03:46:56.315Z,99558.56
2022-10-23T03:49:23.917Z,99564.81
2022-10-23T03:51:52.669Z,99571.69
2022-10-23T03:54:23.864Z,99558.56
2022-10-23T03:56:53.722Z,99567.25
2022-10-23T03:59:24.290Z,99579.47
2022-10-23T04:01:52.120Z,99576.84
2022-10-23T04:04:19.857Z,99575.06
2022-10-23T04:06:47.484Z,99575.94
2022-10-23T04:09:15.536Z,99562.84
2022-10-23T04:11:44.509Z,99577.66
2022-10-23T04:14:12.832Z,99573.22
2022-10-23T04:16:40.482Z,99566.97
2022-10-23T04:19:08.123Z,99566.84
2022-10-23T04:21:35.755Z,99565.81
2022-10-23T04:24:03.628Z,99569.22
2022-10-23T04:26:31.238Z,99572.66
2022-10-23T04:29:00.252Z,99564.59
2022-10-23T04:31:27.906Z,99569.84
2022-10-23T04:33:55.599Z,99563.66
2022-10-23T04:36:23.351Z,99560.88
2022-10-23T04:38:51.010Z,99560.06
2022-10-23T04:41:18.874Z,99550.50
2022-10-23T04:43:46.544Z,99559.91
2022-10-23T04:46:15.511Z,99486.47
2022-10-23T04:51:11.078Z,99543.34
2022-10-23T04:53:39.602Z,99552.81
2022-10-23T04:56:07.930Z,99536.47
2022-10-23T04:58:35.612Z,99550.97
2022-10-23T05:01:03.644Z,99535.31
2022-10-23T05:03:32.809Z,99543.84
2022-10-23T05:06:00.656Z,99550.78
2022-10-23T05:08:28.294Z,99547.19
2022-10-23T05:10:56.104Z,99533.91
2022-10-23T05:13:23.881Z,99528.34
2022-10-23T05:15:52.273Z,99536.91
2022-10-23T05:18:22.627Z,99533.25
2022-10-23T05:20:52.858Z,99524.22
2022-10-23T05:23:21.118Z,99530.25
2022-10-23T05:25:48.888Z,99519.69
2022-10-23T05:28:16.617Z,99522.88
2022-10-23T05:30:44.417Z,99526.28
2022-10-23T05:33:12.144Z,99516.47
2022-10-23T05:35:39.955Z,99528.53
2022-10-23T05:38:08.971Z,99507.34
2022-10-23T05:40:36.805Z,99507.06
2022-10-23T05:43:04.407Z,99506.88
2022-10-23T05:45:32.192Z,99481.09
2022-10-23T05:48:10.739Z,99509.16
2022-10-23T05:50:44.661Z,99501.09
2022-10-23T05:53:13.770Z,99495.72
2022-10-23T05:55:41.581Z,99500.75
2022-10-23T05:58:14.018Z,99483.25
2022-10-23T06:00:41.810Z,99473.56
2022-10-23T06:03:09.560Z,99487.34
2022-10-23T06:05:37.365Z,99484.09
2022-10-23T06:08:14.102Z,99477.72
2022-10-23T06:10:44.365Z,99484.84
2022-10-23T06:13:12.033Z,99482.94
2022-10-23T06:15:39.933Z,99480.31
2022-10-23T06:18:07.716Z,99471.41
2022-10-23T06:20:36.871Z,99466.28
2022-10-23T06:23:07.904Z,99471.41
2022-10-23T06:25:35.598Z,99472.25
2022-10-23T06:28:04.797Z,99469.44
2022-10-23T06:30:32.859Z,99478.97
2022-10-23T06:33:03.275Z,99473.69
2022-10-23T06:35:33.725Z,99470.91
2022-10-23T06:38:01.677Z,99471.66
2022-10-23T06:40:29.494Z,99468.88
2022-10-23T06:43:00.771Z,99474.91
2022-10-23T06:45:32.458Z,99479.19
2022-10-23T06:48:00.422Z,99474.78
2022-10-23T06:50:30.835Z,99476.31
2022-10-23T06:52:58.509Z,99480.53
2022-10-23T06:55:26.232Z,99462.94
2022-10-23T06:57:54.576Z,99458.28
2022-10-23T07:00:22.558Z,99468.59
2022-10-23T07:02:51.592Z,99454.22
2022-10-23T07:05:19.506Z,99460.25
2022-10-23T07:07:47.248Z,99448.88
2022-10-23T07:10:15.286Z,99460.88
2022-10-23T07:12:44.292Z,99459.84
2022-10-23T07:15:12.375Z,99451.00
2022-10-23T07:17:40.104Z,99456.22
2022-10-23T07:20:09.900Z,99463.97
2022-10-23T07:22:38.430Z,99462.13
2022-10-23T07:25:07.351Z,99460.25
2022-10-23T07:27:37.589Z,99453.78
2022-10-23T07:30:05.930Z,99438.94
2022-10-23T07:32:33.720Z,99466.75
2022-10-23T07:35:01.902Z,99416.94
2022-10-23T07:37:31.183Z,99445.84
2022-10-23T07:39:58.971Z,99444.41
2022-10-23T07:42:26.632Z,99451.94
2022-10-23T07:44:54.382Z,99447.88
2022-10-23T07:47:22.025Z,99443.09
2022-10-23T07:49:49.659Z,99445.13
2022-10-23T07:52:17.460Z,99438.97
2022-10-23T07:54:46.519Z,99434.38
2022-10-23T07:57:14.226Z,99436.84
2022-10-23T07:59:41.872Z,99433.38
2022-10-23T08:02:11.985Z,99424.94
2022-10-23T08:04:39.724Z,99435.56
2022-10-23T08:07:07.419Z,99416.69
2022-10-23T08:09:36.403Z,99418.78
2022-10-23T08:12:05.952Z,99409.16
2022-10-23T08:14:33.578Z,99421.97
2022-10-23T08:19:30.115Z,99407.31
2022-10-23T08:21:57.904Z,99419.34
2022-10-23T08:24:25.689Z,99407.16
2022-10-23T08:27:00.301Z,99397.38
2022-10-23T08:29:29.401Z,99392.22
2022-10-23T08:31:57.481Z,99399.03
2022-10-23T08:34:25.159Z,99411.50
2022-10-23T08:36:53.006Z,99408.94
2022-10-23T08:39:20.670Z,99407.88
2022-10-23T08:41:49.799Z,99401.63
2022-10-23T08:44:21.422Z,99407.41
2022-10-23T08:46:52.165Z,99403.63
2022-10-23T08:49:29.878Z,99406.38
2022-10-23T08:51:58.309Z,99397.09
2022-10-23T08:54:27.605Z,99399.09
2022-10-23T08:56:58.336Z,99380.28
2022-10-23T08:59:28.463Z,99391.16
2022-10-23T09:02:01.295Z,99371.28
2022-10-23T09:04:29.109Z,99410.91
2022-10-23T09:07:00.912Z,99382.22
2022-10-23T09:09:50.937Z,99396.72
2022-10-23T09:12:19.410Z,99377.13
2022-10-23T09:14:56.576Z,99377.50
2022-10-23T09:17:26.541Z,99375.91
2022-10-23T09:19:56.888Z,99366.56
2022-10-23T09:22:24.968Z,99377.00
2022-10-23T09:24:53.918Z,99375.94
2022-10-23T09:27:21.882Z,99372.22
2022-10-23T09:29:50.167Z,99368.47
2022-10-23T09:32:20.127Z,99303.47
2022-10-23T09:35:03.257Z,99346.19
2022-10-23T09:37:32.050Z,99338.97
2022-10-23T09:40:19.236Z,99357.50
2022-10-23T09:42:58.111Z,99333.25
2022-10-23T09:45:31.502Z,99328.47
2022-10-23T09:48:12.115Z,99336.53
2022-10-23T09:50:48.831Z,99348.53
2022-10-23T09:53:17.727Z,99326.13
2022-10-23T09:55:52.541Z,99310.50
2022-10-23T09:58:22.089Z,99307.97
2022-10-23T10:00:54.733Z,99316.31
2022-10-23T10:03:24.282Z,99264.28
2022-10-23T10:05:58.450Z,99302.00
2022-10-23T10:08:33.598Z,99255.13
2022-10-23T10:11:02.774Z,99277.38
2022-10-23T10:13:49.777Z,99311.41
2022-10-23T10:16:22.991Z,99304.25
2022-10-23T10:18:53.399Z,99297.13
2022-10-23T10:21:24.135Z,99305.56
2022-10-23T10:23:55.791Z,99298.97
2022-10-23T10:29:15.443Z,99285.53
2022-10-23T10:31:52.988Z,99261.78
2022-10-23T10:34:24.765Z,99280.19
2022-10-23T10:36:56.679Z,99262.66
2022-10-23T10:39:29.521Z,99275.16
2022-10-23T10:42:05.113Z,99269.94
2022-10-23T10:44:43.587Z,99272.38
2022-10-23T10:47:18.584Z,99281.44
2022-10-23T10:49:54.162Z,99257.72
2022-10-23T10:52:25.502Z,99268.75
2022-10-23T10:54:57.233Z,99274.03
2022-10-23T10:57:29.943Z,99229.88
2022-10-23T10:59:59.979Z,99249.97
2022-10-23T11:02:30.130Z,99246.66
2022-10-23T11:05:01.781Z,99225.16
2022-10-23T11:07:35.017Z,99216.63
2022-10-23T11:10:05.523Z,99208.25
2022-10-23T11:12:40.128Z,99196.44
2022-10-23T11:15:13.837Z,99207.31
2022-10-23T11:17:42.295Z,99187.16
2022-10-23T11:20:15.401Z,99203.28
2022-10-23T11:22:46.970Z,99193.03
2022-10-23T11:25:43.949Z,99190.47
2022-10-23T11:28:20.403Z,99150.19
2022-10-23T11:30:57.297Z,99189.81
2022-10-23T11:34:04.773Z,99171.22
2022-10-23T11:36:47.085Z,99176.88
2022-10-23T11:39:20.172Z,99177.25
2022-10-23T11:41:53.078Z,99188.38
2022-10-23T11:44:26.374Z,99179.84
2022-10-23T11:47:01.948Z,99173.63
2022-10-23T11:49:30.696Z,99182.97
2022-10-23T11:52:02.434Z,99178.84
2022-10-23T11:54:31.680Z,99162.78
2022-10-23T11:57:13.035Z,99165.50
2022-10-23T11:59:51.528Z,99158.91
2022-10-23T12:02:24.054Z,99197.53
2022-10-23T12:04:52.956Z,99169.72
2022-10-23T12:07:23.267Z,99157.66
2022-10-23T12:09:56.428Z,99154.13
2022-10-23T12:12:32.306Z,99155.56
2022-10-23T12:15:20.537Z,99137.06
2022-10-23T12:17:48.476Z,99141.00
2022-10-23T12:20:28.607Z,99164.03
2022-10-23T12:23:20.113Z,99137.19
2022-10-23T12:25:57.625Z,99115.84
2022-10-23T12:28:30.218Z,99121.41
2022-10-23T12:31:00.784Z,99193.13
2022-10-23T12:33:29.697Z,99127.47
2022-10-23T12:36:10.437Z,99120.75
2022-10-23T12:38:43.778Z,99098.53
2022-10-23T12:41:15.005Z,99089.81
2022-10-23T12:43:44.112Z,99105.16
2022-10-23T12:46:27.259Z,99084.75
2022-10-23T12:48:56.555Z,99084.25
2022-10-23T12:51:25.187Z,99078.06
2022-10-23T12:53:52.945Z,99091.34
2022-10-23T12:56:21.971Z,99083.31
2022-10-23T12:58:51.202Z,99069.25
2022-10-23T13:01:26.714Z,99063.38
2022-10-23T13:03:57.638Z,99072.88
2022-10-23T13:06:25.390Z,99077.44
2022-10-23T13:08:53.148Z,99102.34
2022-10-23T13:11:22.252Z,99076.41
2022-10-23T13:13:50.164Z,99063.38
2022-10-23T13:16:18.854Z,99003.22
2022-10-23T13:18:46.573Z,99041.50
2022-10-23T13:21:19.543Z,99056.50
2022-10-23T13:23:47.218Z,99065.47
2022-10-23T13:26:33.194Z,99036.81
2022-10-23T13:29:02.955Z,99018.72
2022-10-23T13:31:33.970Z,98961.88
2022-10-23T13:34:07.170Z,99035.53
2022-10-23T13:36:37.117Z,99021.78
2022-10-23T13:39:06.171Z,98975.53
2022-10-23T13:41:39.638Z,98997.06
2022-10-23T13:44:07.380Z,99000.03
2022-10-23T13:46:35.488Z,99020.97
2022-10-23T13:49:03.391Z,98996.84
2022-10-23T13:51:42.688Z,99005.38
2022-10-23T13:54:16.729Z,98992.16
2022-10-23T13:56:45.978Z,98996.63
2022-10-23T13:59:13.838Z,98993.53
2022-10-23T14:01:41.820Z,98974.47
2022-10-23T14:04:11.428Z,98949.22
2022-10-23T14:06:39.362Z,98989.66
2022-10-23T14:09:09.818Z,98978.47
2022-10-23T14:11:37.692Z,98961.28
2022-10-23T14:14:10.080Z,98972.56
2022-10-23T14:16:39.571Z,98986.13
2022-10-23T14:19:08.021Z,98977.81
2022-10-23T14:21:35.754Z,98980.56
2022-10-23T14:24:03.671Z,98986.09
2022-10-23T14:26:32.766Z,98984.19
2022-10-23T14:29:04.483Z,98962.03
2022-10-23T14:31:38.175Z,98975.34
2022-10-23T14:34:05.886Z,98952.41
2022-10-23T14:36:43.226Z,98965.84
2022-10-23T14:39:17.928Z,98959.25
2022-10-23T14:41:45.692Z,98977.78
2022-10-23T14:44:13.404Z,98954.97
2022-10-23T14:46:42.540Z,98957.72
2022-10-23T14:49:10.450Z,98948.44
2022-10-23T14:51:38.357Z,98931.19
2022-10-23T14:54:13.663Z,98929.78
2022-10-23T14:56:41.518Z,98937.47
2022-10-23T14:59:10.683Z,98906.38
2022-10-23T15:01:43.593Z,98866.72
2022-10-23T15:04:15.115Z,98934.66
2022-10-23T15:06:43.015Z,98950.31
2022-10-23T15:09:10.733Z,98939.44
2022-10-23T15:11:38.465Z,98954.84
2022-10-23T15:14:06.203Z,98942.69
2022-10-23T15:16:40.683Z,98953.94
2022-10-23T15:19:09.910Z,98963.56
2022-10-23T15:21:41.400Z,98957.22
2022-10-23T15:24:09.301Z,98965.63
2022-10-23T15:26:38.307Z,98969.81
2022-10-23T15:29:06.640Z,98962.03
2022-10-23T15:31:45.250Z,98955.41
2022-10-23T15:34:15.793Z,98949.09
2022-10-23T15:36:46.897Z,98958.53
2022-10-23T15:39:15.570Z,98960.72
2022-10-23T15:41:44.439Z,98988.63
2022-10-23T15:44:14.373Z,98995.91
2022-10-23T15:46:42.140Z,98992.03
2022-10-23T15:49:11.056Z,98985.75
2022-10-23T15:51:38.969Z,98993.34
2022-10-23T15:54:08.508Z,98987.47
2022-10-23T15:56:36.365Z,98997.16
2022-10-23T15:59:04.485Z,98980.63
2022-10-23T16:01:32.328Z,98988.13
2022-10-23T16:04:00.248Z,98968.28
2022-10-23T16:06:27.937Z,98967.03
2022-10-23T16:08:55.702Z,98946.53
2022-10-23T16:11:25.602Z,98977.59
2022-10-23T16:13:54.874Z,98964.91
2022-10-23T16:16:22.588Z,98975.81
2022-10-23T16:18:50.433Z,98995.06
2022-10-23T16:21:19.464Z,98998.09
2022-10-23T16:23:47.111Z,99026.56
2022-10-23T16:26:14.921Z,99018.78
2022-10-23T16:28:46.311Z,99011.25
2022-10-23T16:31:19.358Z,99014.56
2022-10-23T16:33:48.346Z,99014.53
2022-10-23T16:36:16.118Z,99023.72
2022-10-23T16:38:43.890Z,99010.66
2022-10-23T16:41:11.836Z,99024.03
2022-10-23T16:43:40.139Z,99015.38
2022-10-23T16:46:11.244Z,99009.56
2022-10-23T16:48:39.077Z,99024.81
2022-10-23T16:51:07.782Z,99029.44
2022-10-23T16:53:35.636Z,99035.81
2022-10-23T16:56:04.645Z,99061.00
2022-10-23T16:58:32.699Z,99064.84
2022-10-23T17:01:01.644Z,99070.22
2022-10-23T17:03:31.156Z,99095.19
2022-10-23T17:06:02.828Z,99159.38
2022-10-23T17:08:32.786Z,99098.88
2022-10-23T17:11:07.484Z,99099.13
2022-10-23T17:13:35.560Z,99075.81
2022-10-23T17:16:08.490Z,99084.66
2022-10-23T17:18:41.303Z,99082.97
2022-10-23T17:21:11.801Z,99042.81
2022-10-23T17:23:39.648Z,98984.88
2022-10-23T17:26:08.065Z,98900.06
2022-10-23T17:28:39.810Z,98928.03
2022-10-23T17:31:13.506Z,98951.47
2022-10-23T17:33:42.731Z,98979.88
2022-10-23T17:36:11.061Z,98971.47
2022-10-23T17:38:38.789Z,98981.69
2022-10-23T17:41:34.793Z,98986.56
2022-10-23T17:44:02.529Z,98969.75
2022-10-23T17:46:30.431Z,98959.03
2022-10-23T17:49:00.125Z,98968.59
2022-10-23T17:51:28.952Z,98947.72
2022-10-23T17:53:57.800Z,98972.31
2022-10-23T17:56:26.551Z,99013.84
2022-10-23T17:58:55.101Z,99011.97
2022-10-23T18:01:25.040Z,98986.44
2022-10-23T18:03:53.066Z,98995.84
2022-10-23T18:06:25.858Z,98973.91
2022-10-23T18:08:56.664Z,98968.59
2022-10-23T18:11:25.097Z,98945.13
2022-10-23T18:13:52.844Z,98969.69
2022-10-23T18:16:20.723Z,98969.44
2022-10-23T18:18:48.789Z,98954.34
2022-10-23T18:21:16.850Z,98949.97
2022-10-23T18:23:46.102Z,98936.50
2022-10-23T18:26:16.672Z,98936.69
2022-10-23T18:28:49.103Z,98924.28
2022-10-23T18:31:17.203Z,98947.97
2022-10-23T18:33:45.067Z,98920.78
2022-10-23T18:36:16.351Z,98929.34
2022-10-23T18:38:52.120Z,98910.75
2022-10-23T18:41:23.635Z,98928.56
2022-10-23T18:43:51.674Z,98928.66
2022-10-23T18:46:19.799Z,98912.69
2022-10-23T18:48:48.020Z,98925.75
2022-10-23T18:51:16.791Z,98926.78
2022-10-23T18:53:46.940Z,98930.16
2022-10-23T18:56:15.696Z,98923.75
2022-10-23T18:58:44.934Z,98926.69
2022-10-23T19:01:12.878Z,98926.63
2022-10-23T19:03:40.770Z,98922.44
2022-10-23T19:06:08.876Z,98900.34
2022-10-23T19:08:40.453Z,98920.31
2022-10-23T19:11:08.669Z,98926.78
2022-10-23T19:13:39.119Z,98910.75
2022-10-23T19:16:10.092Z,98900.09
2022-10-23T19:18:39.024Z,98911.63
2022-10-23T19:21:07.786Z,98928.41
2022-10-23T19:23:36.426Z,98920.41
2022-10-23T19:28:41.209Z,98923.91
2022-10-23T19:31:10.442Z,98903.44
2022-10-23T19:33:38.826Z,98909.41
2022-10-23T19:36:11.102Z,98884.66
2022-10-23T19:38:43.008Z,98896.16
2022-10-23T19:41:10.757Z,98899.69
2022-10-23T19:43:38.659Z,98898.13
2022-10-23T19:46:09.475Z,98867.63
2022-10-23T19:48:44.082Z,98893.16
2022-10-23T19:51:12.825Z,98899.44
2022-10-23T19:53:40.634Z,98917.81
2022-10-23T19:56:09.603Z,98924.84
2022-10-23T19:58:37.234Z,98916.75
2022-10-23T20:01:09.201Z,98945.16
2022-10-23T20:03:36.937Z,98920.63
2022-10-23T20:06:08.895Z,98919.44
2022-10-23T20:08:36.506Z,98914.03
2022-10-23T20:11:04.357Z,98899.56
2022-10-23T20:13:32.172Z,98914.03
2022-10-23T20:15:59.831Z,98928.88
2022-10-23T20:18:27.495Z,98928.81
2022-10-23T20:20:55.280Z,98904.34
2022-10-23T20:23:24.241Z,98922.09
2022-10-23T20:25:51.893Z,98927.94
2022-10-23T20:28:20.655Z,98936.97
2022-10-23T20:30:48.455Z,98942.19
2022-10-23T20:33:16.075Z,98947.25
2022-10-23T20:35:43.889Z,98964.25
2022-10-23T20:38:11.656Z,98977.94
2022-10-23T20:40:40.619Z,98969.69
2022-10-23T20:43:08.377Z,98983.47
2022-10-23T20:45:36.015Z,98988.53
2022-10-23T20:48:04.892Z,98996.22
2022-10-23T20:50:32.501Z,99018.91
2022-10-23T20:53:00.198Z,99033.63
2022-10-23T20:55:27.958Z,99039.63
2022-10-23T20:57:56.975Z,98993.47
2022-10-23T21:00:26.280Z,99041.44
2022-10-23T21:02:54.328Z,99031.38
2022-10-23T21:05:22.125Z,99059.50
2022-10-23T21:07:49.812Z,99051.22
2022-10-23T21:10:17.483Z,99036.78
2022-10-23T21:12:45.442Z,99038.41
2022-10-23T21:15:14.761Z,99029.47
2022-10-23T21:17:42.411Z,99038.41
2022-10-23T21:20:10.989Z,99009.47
2022-10-23T21:22:38.659Z,99017.78
2022-10-23T21:25:07.354Z,99005.53
2022-10-23T21:27:35.079Z,99014.09
2022-10-23T21:30:03.209Z,98996.50
2022-10-23T21:32:32.178Z,99005.38
2022-10-23T21:34:59.822Z,99017.25
2022-10-23T21:37:27.479Z,99014.59
2022-10-23T21:39:55.159Z,99001.84
2022-10-23T21:42:22.767Z,99009.97
2022-10-23T21:44:50.494Z,99015.75
2022-10-23T21:47:18.080Z,99006.16
2022-10-23T21:49:47.359Z,99012.50
2022-10-23T21:52:17.587Z,99012.59
2022-10-23T21:54:47.372Z,99015.31
2022-10-23T21:57:15.274Z,99012.81
2022-10-23T21:59:42.896Z,99013.84
2022-10-23T22:02:10.536Z,99009.72
2022-10-23T22:04:38.657Z,99008.59
2022-10-23T22:07:10.744Z,99009.72
2022-10-23T22:09:39.400Z,98999.50
2022-10-23T22:12:07.093Z,99008.94
2022-10-23T22:14:36.348Z,99009.09
2022-10-23T22:17:04.116Z,99017.22
2022-10-23T22:19:31.789Z,99002.09
2022-10-23T22:21:59.553Z,99017.13
2022-10-23T22:24:28.600Z,98994.31
2022-10-23T22:26:56.845Z,98992.59
2022-10-23T22:29:26.012Z,98989.06
2022-10-23T22:31:53.654Z,99003.91
2022-10-23T22:34:51.384Z,98994.44
2022-10-23T22:37:12.342Z,99019.69
2022-10-23T22:39:41.449Z,99005.59
2022-10-23T22:42:09.157Z,99002.00
2022-10-23T22:44:36.862Z,98997.72
2022-10-23T22:47:04.656Z,98988.06
2022-10-23T22:49:32.289Z,98992.88
2022-10-23T22:51:59.923Z,99005.97
2022-10-23T22:54:27.607Z,99006.91
2022-10-23T22:56:56.563Z,98998.94
2022-10-23T23:01:52.837Z,99005.50
2022-10-23T23:09:37.802Z,98992.66
2022-10-23T23:12:07.458Z,99007.84
2022-10-23T23:14:35.081Z,99007.66
2022-10-23T23:17:02.787Z,98994.59
2022-10-23T23:19:30.411Z,98994.34
2022-10-23T23:21:58.278Z,98987.50
2022-10-23T23:24:26.028Z,99000.75
2022-10-23T23:26:53.636Z,99001.34
2022-10-23T23:29:22.774Z,99008.13
2022-10-23T23:31:50.400Z,98981.84
2022-10-23T23:34:18.168Z,99004.53
2022-10-23T23:36:45.749Z,99005.53
2022-10-23T23:39:13.513Z,99010.06
2022-10-23T23:41:41.117Z,99003.59
2022-10-23T23:44:08.824Z,98998.16
2022-10-23T23:46:38.157Z,99003.28
2022-10-23T23:49:05.896Z,98998.84
2022-10-23T23:51:33.530Z,99003.28
2022-10-23T23:54:01.333Z,98988.16
2022-10-23T23:56:29.120Z,98983.97
2022-10-23T23:58:56.846Z,98988.38
